sensor_id;sensor_type;location;lat;lon;timestamp;P1;durP1;ratioP1;P2;durP2;ratioP2
70444;SDS011;57902;49.638;11.070;2022-11-20T00:01:21;25.17;;;9.10;;
70444;SDS011;57902;49.638;11.070;2022-11-20T00:03:53;21.35;;;8.60;;
70444;SDS011;57902;49.638;11.070;2022-11-20T00:06:20;24.27;;;9.35;;
70444;SDS011;57902;49.638;11.070;2022-11-20T00:08:48;24.00;;;9.13;;
70444;SDS011;57902;49.638;11.070;2022-11-20T00:11:16;25.77;;;9.30;;
70444;SDS011;57902;49.638;11.070;2022-11-20T00:13:45;23.30;;;9.73;;
70444;SDS011;57902;49.638;11.070;2022-11-20T00:16:13;27.92;;;9.05;;
70444;SDS011;57902;49.638;11.070;2022-11-20T00:18:41;22.60;;;8.40;;
70444;SDS011;57902;49.638;11.070;2022-11-20T00:21:18;25.90;;;9.82;;
70444;SDS011;57902;49.638;11.070;2022-11-20T00:23:47;22.25;;;8.80;;
70444;SDS011;57902;49.638;11.070;2022-11-20T00:26:15;24.73;;;9.13;;
70444;SDS011;57902;49.638;11.070;2022-11-20T00:28:44;23.20;;;8.50;;
70444;SDS011;57902;49.638;11.070;2022-11-20T00:31:16;26.65;;;9.52;;
70444;SDS011;57902;49.638;11.070;2022-11-20T00:33:43;28.58;;;10.45;;
70444;SDS011;57902;49.638;11.070;2022-11-20T00:36:14;24.52;;;9.00;;
70444;SDS011;57902;49.638;11.070;2022-11-20T00:38:43;23.60;;;8.85;;
70444;SDS011;57902;49.638;11.070;2022-11-20T00:41:11;23.95;;;9.52;;
70444;SDS011;57902;49.638;11.070;2022-11-20T00:43:41;21.50;;;9.38;;
70444;SDS011;57902;49.638;11.070;2022-11-20T00:46:10;25.60;;;9.00;;
70444;SDS011;57902;49.638;11.070;2022-11-20T00:48:39;22.88;;;9.30;;
70444;SDS011;57902;49.638;11.070;2022-11-20T00:51:06;26.50;;;8.85;;
70444;SDS011;57902;49.638;11.070;2022-11-20T00:53:33;23.10;;;8.57;;
70444;SDS011;57902;49.638;11.070;2022-11-20T00:56:00;23.38;;;9.57;;
70444;SDS011;57902;49.638;11.070;2022-11-20T00:58:29;22.40;;;8.98;;
70444;SDS011;57902;49.638;11.070;2022-11-20T01:01:01;28.13;;;10.60;;
70444;SDS011;57902;49.638;11.070;2022-11-20T01:03:36;24.10;;;9.05;;
70444;SDS011;57902;49.638;11.070;2022-11-20T01:06:18;27.38;;;9.85;;
70444;SDS011;57902;49.638;11.070;2022-11-20T01:08:58;24.70;;;9.52;;
70444;SDS011;57902;49.638;11.070;2022-11-20T01:11:41;23.70;;;9.25;;
70444;SDS011;57902;49.638;11.070;2022-11-20T01:14:38;26.42;;;9.55;;
70444;SDS011;57902;49.638;11.070;2022-11-20T01:17:28;23.10;;;8.93;;
70444;SDS011;57902;49.638;11.070;2022-11-20T01:20:09;23.33;;;9.18;;
70444;SDS011;57902;49.638;11.070;2022-11-20T01:22:39;26.85;;;9.77;;
70444;SDS011;57902;49.638;11.070;2022-11-20T01:25:20;24.45;;;9.05;;
70444;SDS011;57902;49.638;11.070;2022-11-20T01:27:58;25.00;;;9.23;;
70444;SDS011;57902;49.638;11.070;2022-11-20T01:30:32;23.38;;;9.10;;
70444;SDS011;57902;49.638;11.070;2022-11-20T01:33:21;26.20;;;9.15;;
70444;SDS011;57902;49.638;11.070;2022-11-20T01:36:10;26.70;;;9.30;;
70444;SDS011;57902;49.638;11.070;2022-11-20T01:41:58;23.92;;;9.77;;
70444;SDS011;57902;49.638;11.070;2022-11-20T01:50:41;25.45;;;9.30;;
70444;SDS011;57902;49.638;11.070;2022-11-20T01:53:34;28.02;;;9.80;;
70444;SDS011;57902;49.638;11.070;2022-11-20T01:56:08;23.73;;;9.32;;
70444;SDS011;57902;49.638;11.070;2022-11-20T01:58:39;25.40;;;9.85;;
70444;SDS011;57902;49.638;11.070;2022-11-20T02:01:11;25.30;;;9.13;;
70444;SDS011;57902;49.638;11.070;2022-11-20T02:03:38;29.55;;;9.70;;
70444;SDS011;57902;49.638;11.070;2022-11-20T02:06:13;25.42;;;9.95;;
70444;SDS011;57902;49.638;11.070;2022-11-20T02:08:45;23.30;;;9.02;;
70444;SDS011;57902;49.638;11.070;2022-11-20T02:11:11;26.08;;;8.95;;
70444;SDS011;57902;49.638;11.070;2022-11-20T02:13:38;24.77;;;9.55;;
70444;SDS011;57902;49.638;11.070;2022-11-20T02:16:15;30.17;;;10.00;;
70444;SDS011;57902;49.638;11.070;2022-11-20T02:18:43;25.17;;;9.40;;
70444;SDS011;57902;49.638;11.070;2022-11-20T02:21:17;26.73;;;10.02;;
70444;SDS011;57902;49.638;11.070;2022-11-20T02:24:07;25.08;;;9.00;;
70444;SDS011;57902;49.638;11.070;2022-11-20T02:26:35;22.15;;;9.75;;
70444;SDS011;57902;49.638;11.070;2022-11-20T02:29:07;25.58;;;9.70;;
70444;SDS011;57902;49.638;11.070;2022-11-20T02:31:40;23.95;;;8.75;;
70444;SDS011;57902;49.638;11.070;2022-11-20T02:34:18;22.35;;;8.50;;
70444;SDS011;57902;49.638;11.070;2022-11-20T02:36:44;26.10;;;9.90;;
70444;SDS011;57902;49.638;11.070;2022-11-20T02:39:17;25.92;;;9.98;;
70444;SDS011;57902;49.638;11.070;2022-11-20T02:41:57;26.38;;;10.10;;
70444;SDS011;57902;49.638;11.070;2022-11-20T02:44:23;23.33;;;9.52;;
70444;SDS011;57902;49.638;11.070;2022-11-20T02:46:50;26.58;;;10.13;;
70444;SDS011;57902;49.638;11.070;2022-11-20T02:49:16;24.98;;;10.63;;
70444;SDS011;57902;49.638;11.070;2022-11-20T02:51:43;23.85;;;9.30;;
70444;SDS011;57902;49.638;11.070;2022-11-20T02:57:24;29.48;;;9.18;;
70444;SDS011;57902;49.638;11.070;2022-11-20T03:00:13;22.30;;;8.45;;
70444;SDS011;57902;49.638;11.070;2022-11-20T03:02:45;26.10;;;10.18;;
70444;SDS011;57902;49.638;11.070;2022-11-20T03:05:12;27.33;;;9.02;;
70444;SDS011;57902;49.638;11.070;2022-11-20T03:07:38;23.73;;;9.70;;
70444;SDS011;57902;49.638;11.070;2022-11-20T03:10:05;26.10;;;9.77;;
70444;SDS011;57902;49.638;11.070;2022-11-20T03:12:47;24.50;;;9.32;;
70444;SDS011;57902;49.638;11.070;2022-11-20T03:15:13;26.73;;;9.57;;
70444;SDS011;57902;49.638;11.070;2022-11-20T03:17:40;28.80;;;9.70;;
70444;SDS011;57902;49.638;11.070;2022-11-20T03:20:06;27.45;;;10.27;;
70444;SDS011;57902;49.638;11.070;2022-11-20T03:22:34;25.88;;;10.20;;
70444;SDS011;57902;49.638;11.070;2022-11-20T03:25:00;23.77;;;9.38;;
70444;SDS011;57902;49.638;11.070;2022-11-20T03:27:27;25.08;;;9.77;;
70444;SDS011;57902;49.638;11.070;2022-11-20T03:29:58;24.98;;;9.77;;
70444;SDS011;57902;49.638;11.070;2022-11-20T03:32:24;24.92;;;8.38;;
70444;SDS011;57902;49.638;11.070;2022-11-20T03:34:51;27.58;;;9.48;;
70444;SDS011;57902;49.638;11.070;2022-11-20T03:37:17;24.98;;;9.70;;
70444;SDS011;57902;49.638;11.070;2022-11-20T03:39:44;26.30;;;9.73;;
70444;SDS011;57902;49.638;11.070;2022-11-20T03:42:10;29.90;;;9.32;;
70444;SDS011;57902;49.638;11.070;2022-11-20T03:44:57;24.27;;;9.48;;
70444;SDS011;57902;49.638;11.070;2022-11-20T03:47:23;24.52;;;9.23;;
70444;SDS011;57902;49.638;11.070;2022-11-20T03:49:57;25.35;;;9.68;;
70444;SDS011;57902;49.638;11.070;2022-11-20T03:52:27;24.35;;;9.60;;
70444;SDS011;57902;49.638;11.070;2022-11-20T03:54:54;25.33;;;9.52;;
70444;SDS011;57902;49.638;11.070;2022-11-20T03:57:20;22.13;;;9.35;;
70444;SDS011;57902;49.638;11.070;2022-11-20T03:59:47;30.35;;;10.50;;
70444;SDS011;57902;49.638;11.070;2022-11-20T04:02:13;28.50;;;9.82;;
70444;SDS011;57902;49.638;11.070;2022-11-20T04:04:40;25.45;;;9.52;;
70444;SDS011;57902;49.638;11.070;2022-11-20T04:07:06;26.55;;;10.23;;
70444;SDS011;57902;49.638;11.070;2022-11-20T04:09:40;25.85;;;9.73;;
70444;SDS011;57902;49.638;11.070;2022-11-20T04:12:06;28.23;;;10.40;;
70444;SDS011;57902;49.638;11.070;2022-11-20T04:14:33;27.75;;;9.93;;
70444;SDS011;57902;49.638;11.070;2022-11-20T04:16:59;25.30;;;9.00;;
70444;SDS011;57902;49.638;11.070;2022-11-20T04:19:26;32.10;;;10.90;;
70444;SDS011;57902;49.638;11.070;2022-11-20T04:21:53;31.42;;;9.75;;
70444;SDS011;57902;49.638;11.070;2022-11-20T04:24:21;30.10;;;10.48;;
70444;SDS011;57902;49.638;11.070;2022-11-20T04:26:50;30.65;;;10.77;;
70444;SDS011;57902;49.638;11.070;2022-11-20T04:29:17;29.33;;;11.57;;
70444;SDS011;57902;49.638;11.070;2022-11-20T04:31:54;30.38;;;9.93;;
70444;SDS011;57902;49.638;11.070;2022-11-20T04:34:20;29.33;;;10.93;;
70444;SDS011;57902;49.638;11.070;2022-11-20T04:36:47;28.38;;;10.55;;
70444;SDS011;57902;49.638;11.070;2022-11-20T04:39:14;31.60;;;11.60;;
70444;SDS011;57902;49.638;11.070;2022-11-20T04:41:41;29.42;;;11.60;;
70444;SDS011;57902;49.638;11.070;2022-11-20T04:44:08;29.35;;;11.07;;
70444;SDS011;57902;49.638;11.070;2022-11-20T04:46:38;27.30;;;10.73;;
70444;SDS011;57902;49.638;11.070;2022-11-20T04:49:07;30.25;;;10.70;;
70444;SDS011;57902;49.638;11.070;2022-11-20T04:51:34;33.92;;;10.38;;
70444;SDS011;57902;49.638;11.070;2022-11-20T04:54:04;25.67;;;9.68;;
70444;SDS011;57902;49.638;11.070;2022-11-20T04:56:31;28.45;;;10.45;;
70444;SDS011;57902;49.638;11.070;2022-11-20T04:59:01;31.17;;;11.40;;
70444;SDS011;57902;49.638;11.070;2022-11-20T05:01:28;29.92;;;12.10;;
70444;SDS011;57902;49.638;11.070;2022-11-20T05:04:06;34.72;;;10.73;;
70444;SDS011;57902;49.638;11.070;2022-11-20T05:06:40;32.97;;;12.82;;
70444;SDS011;57902;49.638;11.070;2022-11-20T05:09:07;32.53;;;11.38;;
70444;SDS011;57902;49.638;11.070;2022-11-20T05:11:33;31.77;;;11.05;;
70444;SDS011;57902;49.638;11.070;2022-11-20T05:14:00;30.88;;;11.55;;
70444;SDS011;57902;49.638;11.070;2022-11-20T05:16:27;31.23;;;10.90;;
70444;SDS011;57902;49.638;11.070;2022-11-20T05:18:54;32.53;;;11.13;;
70444;SDS011;57902;49.638;11.070;2022-11-20T05:21:20;33.65;;;11.70;;
70444;SDS011;57902;49.638;11.070;2022-11-20T05:23:48;35.47;;;11.98;;
70444;SDS011;57902;49.638;11.070;2022-11-20T05:26:19;35.40;;;12.00;;
70444;SDS011;57902;49.638;11.070;2022-11-20T05:28:47;34.67;;;12.23;;
70444;SDS011;57902;49.638;11.070;2022-11-20T05:31:16;31.33;;;11.55;;
70444;SDS011;57902;49.638;11.070;2022-11-20T05:33:52;33.67;;;12.10;;
70444;SDS011;57902;49.638;11.070;2022-11-20T05:36:19;35.55;;;12.18;;
70444;SDS011;57902;49.638;11.070;2022-11-20T05:38:49;32.20;;;11.60;;
70444;SDS011;57902;49.638;11.070;2022-11-20T05:41:18;36.58;;;12.85;;
70444;SDS011;57902;49.638;11.070;2022-11-20T05:43:47;34.63;;;13.32;;
70444;SDS011;57902;49.638;11.070;2022-11-20T05:46:15;32.63;;;11.23;;
70444;SDS011;57902;49.638;11.070;2022-11-20T05:48:50;30.23;;;11.43;;
70444;SDS011;57902;49.638;11.070;2022-11-20T05:51:17;33.88;;;12.27;;
70444;SDS011;57902;49.638;11.070;2022-11-20T05:53:45;32.85;;;11.80;;
70444;SDS011;57902;49.638;11.070;2022-11-20T05:56:15;35.33;;;11.45;;
70444;SDS011;57902;49.638;11.070;2022-11-20T05:58:44;33.22;;;12.60;;
70444;SDS011;57902;49.638;11.070;2022-11-20T06:01:12;34.80;;;12.40;;
70444;SDS011;57902;49.638;11.070;2022-11-20T06:03:41;32.38;;;11.90;;
70444;SDS011;57902;49.638;11.070;2022-11-20T06:06:17;28.38;;;11.25;;
70444;SDS011;57902;49.638;11.070;2022-11-20T06:08:44;32.25;;;10.95;;
70444;SDS011;57902;49.638;11.070;2022-11-20T06:11:12;30.05;;;11.23;;
70444;SDS011;57902;49.638;11.070;2022-11-20T06:13:39;29.05;;;10.95;;
70444;SDS011;57902;49.638;11.070;2022-11-20T06:16:08;28.35;;;11.02;;
70444;SDS011;57902;49.638;11.070;2022-11-20T06:18:35;33.03;;;11.95;;
70444;SDS011;57902;49.638;11.070;2022-11-20T06:21:04;32.40;;;11.85;;
70444;SDS011;57902;49.638;11.070;2022-11-20T06:23:38;34.03;;;13.30;;
70444;SDS011;57902;49.638;11.070;2022-11-20T06:26:06;37.03;;;12.90;;
70444;SDS011;57902;49.638;11.070;2022-11-20T06:31:01;28.17;;;10.38;;
70444;SDS011;57902;49.638;11.070;2022-11-20T06:33:27;29.40;;;11.98;;
70444;SDS011;57902;49.638;11.070;2022-11-20T06:35:58;43.90;;;14.88;;
70444;SDS011;57902;49.638;11.070;2022-11-20T06:38:32;34.78;;;11.20;;
70444;SDS011;57902;49.638;11.070;2022-11-20T06:40:58;30.30;;;11.10;;
70444;SDS011;57902;49.638;11.070;2022-11-20T06:43:25;37.08;;;11.82;;
70444;SDS011;57902;49.638;11.070;2022-11-20T06:45:57;30.45;;;11.32;;
70444;SDS011;57902;49.638;11.070;2022-11-20T06:48:25;31.75;;;11.32;;
70444;SDS011;57902;49.638;11.070;2022-11-20T06:50:54;35.58;;;12.07;;
70444;SDS011;57902;49.638;11.070;2022-11-20T06:53:21;32.50;;;10.70;;
70444;SDS011;57902;49.638;11.070;2022-11-20T06:55:49;33.45;;;10.95;;
70444;SDS011;57902;49.638;11.070;2022-11-20T06:58:16;29.52;;;11.15;;
70444;SDS011;57902;49.638;11.070;2022-11-20T07:00:44;31.88;;;11.10;;
70444;SDS011;57902;49.638;11.070;2022-11-20T07:03:11;28.90;;;10.43;;
70444;SDS011;57902;49.638;11.070;2022-11-20T07:05:38;31.73;;;11.48;;
70444;SDS011;57902;49.638;11.070;2022-11-20T07:08:05;32.35;;;11.98;;
70444;SDS011;57902;49.638;11.070;2022-11-20T07:10:32;30.20;;;11.75;;
70444;SDS011;57902;49.638;11.070;2022-11-20T07:12:59;30.50;;;11.13;;
70444;SDS011;57902;49.638;11.070;2022-11-20T07:15:25;51.58;;;12.13;;
70444;SDS011;57902;49.638;11.070;2022-11-20T07:17:52;29.88;;;10.73;;
70444;SDS011;57902;49.638;11.070;2022-11-20T07:20:19;33.25;;;11.07;;
70444;SDS011;57902;49.638;11.070;2022-11-20T07:22:53;34.30;;;11.88;;
70444;SDS011;57902;49.638;11.070;2022-11-20T07:25:21;37.42;;;13.35;;
70444;SDS011;57902;49.638;11.070;2022-11-20T07:27:48;46.15;;;15.82;;
70444;SDS011;57902;49.638;11.070;2022-11-20T07:30:15;40.60;;;14.90;;
70444;SDS011;57902;49.638;11.070;2022-11-20T07:32:42;43.97;;;13.95;;
70444;SDS011;57902;49.638;11.070;2022-11-20T07:35:12;33.10;;;12.30;;
70444;SDS011;57902;49.638;11.070;2022-11-20T07:37:39;31.92;;;12.23;;
70444;SDS011;57902;49.638;11.070;2022-11-20T07:40:05;56.55;;;19.40;;
70444;SDS011;57902;49.638;11.070;2022-11-20T07:42:32;30.30;;;11.15;;
70444;SDS011;57902;49.638;11.070;2022-11-20T07:44:58;32.05;;;11.73;;
70444;SDS011;57902;49.638;11.070;2022-11-20T07:47:25;28.88;;;10.38;;
70444;SDS011;57902;49.638;11.070;2022-11-20T07:49:51;26.42;;;10.50;;
70444;SDS011;57902;49.638;11.070;2022-11-20T07:52:18;67.32;;;20.30;;
70444;SDS011;57902;49.638;11.070;2022-11-20T07:54:44;45.97;;;14.85;;
70444;SDS011;57902;49.638;11.070;2022-11-20T07:57:11;29.88;;;11.23;;
70444;SDS011;57902;49.638;11.070;2022-11-20T07:59:37;26.77;;;10.50;;
70444;SDS011;57902;49.638;11.070;2022-11-20T08:02:05;33.42;;;11.95;;
70444;SDS011;57902;49.638;11.070;2022-11-20T08:04:31;30.73;;;10.88;;
70444;SDS011;57902;49.638;11.070;2022-11-20T08:06:59;34.20;;;11.85;;
70444;SDS011;57902;49.638;11.070;2022-11-20T08:09:26;29.73;;;10.48;;
70444;SDS011;57902;49.638;11.070;2022-11-20T08:11:52;33.22;;;11.77;;
70444;SDS011;57902;49.638;11.070;2022-11-20T08:14:37;32.55;;;11.43;;
70444;SDS011;57902;49.638;11.070;2022-11-20T08:17:04;29.05;;;11.18;;
70444;SDS011;57902;49.638;11.070;2022-11-20T08:19:30;32.75;;;11.30;;
70444;SDS011;57902;49.638;11.070;2022-11-20T08:21:57;28.83;;;11.45;;
70444;SDS011;57902;49.638;11.070;2022-11-20T08:24:23;23.33;;;8.75;;
70444;SDS011;57902;49.638;11.070;2022-11-20T08:26:50;31.90;;;11.60;;
70444;SDS011;57902;49.638;11.070;2022-11-20T08:29:17;25.10;;;9.68;;
70444;SDS011;57902;49.638;11.070;2022-11-20T08:31:44;24.75;;;9.38;;
70444;SDS011;57902;49.638;11.070;2022-11-20T08:34:11;24.23;;;9.55;;
70444;SDS011;57902;49.638;11.070;2022-11-20T08:36:44;25.02;;;9.48;;
70444;SDS011;57902;49.638;11.070;2022-11-20T08:39:11;27.33;;;9.10;;
70444;SDS011;57902;49.638;11.070;2022-11-20T08:41:40;21.90;;;8.65;;
70444;SDS011;57902;49.638;11.070;2022-11-20T08:44:07;24.10;;;9.48;;
70444;SDS011;57902;49.638;11.070;2022-11-20T08:46:35;23.10;;;9.73;;
70444;SDS011;57902;49.638;11.070;2022-11-20T08:49:04;23.88;;;9.20;;
70444;SDS011;57902;49.638;11.070;2022-11-20T08:51:32;20.60;;;8.13;;
70444;SDS011;57902;49.638;11.070;2022-11-20T08:53:59;22.33;;;8.63;;
70444;SDS011;57902;49.638;11.070;2022-11-20T08:56:25;20.67;;;7.18;;
70444;SDS011;57902;49.638;11.070;2022-11-20T08:58:52;24.80;;;10.77;;
70444;SDS011;57902;49.638;11.070;2022-11-20T09:01:38;21.20;;;8.13;;
70444;SDS011;57902;49.638;11.070;2022-11-20T09:04:05;22.02;;;9.30;;
70444;SDS011;57902;49.638;11.070;2022-11-20T09:06:32;24.83;;;10.02;;
70444;SDS011;57902;49.638;11.070;2022-11-20T09:08:58;23.17;;;8.93;;
70444;SDS011;57902;49.638;11.070;2022-11-20T09:11:31;23.05;;;9.15;;
70444;SDS011;57902;49.638;11.070;2022-11-20T09:13:58;23.17;;;9.60;;
70444;SDS011;57902;49.638;11.070;2022-11-20T09:16:26;23.60;;;8.98;;
70444;SDS011;57902;49.638;11.070;2022-11-20T09:18:52;26.10;;;9.25;;
70444;SDS011;57902;49.638;11.070;2022-11-20T09:21:38;23.15;;;9.15;;
70444;SDS011;57902;49.638;11.070;2022-11-20T09:24:05;23.75;;;8.60;;
70444;SDS011;57902;49.638;11.070;2022-11-20T09:26:31;25.40;;;9.23;;
70444;SDS011;57902;49.638;11.070;2022-11-20T09:28:58;25.00;;;9.32;;
70444;SDS011;57902;49.638;11.070;2022-11-20T09:31:24;21.85;;;8.30;;
70444;SDS011;57902;49.638;11.070;2022-11-20T09:33:52;26.25;;;10.30;;
70444;SDS011;57902;49.638;11.070;2022-11-20T09:36:18;24.40;;;10.25;;
70444;SDS011;57902;49.638;11.070;2022-11-20T09:38:45;28.90;;;10.13;;
70444;SDS011;57902;49.638;11.070;2022-11-20T09:49:22;23.50;;;9.52;;
70444;SDS011;57902;49.638;11.070;2022-11-20T09:52:10;24.98;;;9.45;;
70444;SDS011;57902;49.638;11.070;2022-11-20T09:54:43;19.95;;;7.75;;
70444;SDS011;57902;49.638;11.070;2022-11-20T09:57:18;24.45;;;8.68;;
70444;SDS011;57902;49.638;11.070;2022-11-20T09:59:52;23.55;;;8.63;;
70444;SDS011;57902;49.638;11.070;2022-11-20T10:04:55;28.83;;;11.45;;
70444;SDS011;57902;49.638;11.070;2022-11-20T10:10:34;28.95;;;11.13;;
70444;SDS011;57902;49.638;11.070;2022-11-20T10:13:21;24.08;;;8.13;;
70444;SDS011;57902;49.638;11.070;2022-11-20T10:29:34;23.40;;;8.82;;
70444;SDS011;57902;49.638;11.070;2022-11-20T10:32:04;24.63;;;10.43;;
70444;SDS011;57902;49.638;11.070;2022-11-20T10:34:48;24.67;;;10.57;;
70444;SDS011;57902;49.638;11.070;2022-11-20T10:43:02;23.67;;;9.50;;
70444;SDS011;57902;49.638;11.070;2022-11-20T10:45:37;21.83;;;9.68;;
70444;SDS011;57902;49.638;11.070;2022-11-20T10:48:20;24.98;;;10.10;;
70444;SDS011;57902;49.638;11.070;2022-11-20T10:56:40;23.52;;;9.75;;
70444;SDS011;57902;49.638;11.070;2022-11-20T11:02:23;28.67;;;12.73;;
70444;SDS011;57902;49.638;11.070;2022-11-20T11:04:53;29.67;;;11.38;;
70444;SDS011;57902;49.638;11.070;2022-11-20T11:07:39;30.35;;;12.63;;
70444;SDS011;57902;49.638;11.070;2022-11-20T11:10:14;27.90;;;10.88;;
70444;SDS011;57902;49.638;11.070;2022-11-20T11:12:45;33.92;;;12.38;;
70444;SDS011;57902;49.638;11.070;2022-11-20T11:15:23;41.15;;;14.48;;
70444;SDS011;57902;49.638;11.070;2022-11-20T11:17:52;19.67;;;7.78;;
70444;SDS011;57902;49.638;11.070;2022-11-20T11:20:23;18.27;;;7.55;;
70444;SDS011;57902;49.638;11.070;2022-11-20T11:22:56;17.33;;;6.43;;
70444;SDS011;57902;49.638;11.070;2022-11-20T11:27:58;20.58;;;7.03;;
70444;SDS011;57902;49.638;11.070;2022-11-20T11:30:27;33.38;;;11.35;;
70444;SDS011;57902;49.638;11.070;2022-11-20T11:33:06;25.35;;;10.07;;
70444;SDS011;57902;49.638;11.070;2022-11-20T11:35:39;60.22;;;12.80;;
70444;SDS011;57902;49.638;11.070;2022-11-20T11:38:17;36.53;;;10.85;;
70444;SDS011;57902;49.638;11.070;2022-11-20T11:40:49;30.10;;;9.75;;
70444;SDS011;57902;49.638;11.070;2022-11-20T11:43:21;14.45;;;6.03;;
70444;SDS011;57902;49.638;11.070;2022-11-20T11:46:20;10.48;;;4.65;;
70444;SDS011;57902;49.638;11.070;2022-11-20T11:48:58;11.88;;;4.40;;
70444;SDS011;57902;49.638;11.070;2022-11-20T11:51:32;16.58;;;5.78;;
70444;SDS011;57902;49.638;11.070;2022-11-20T11:53:59;9.35;;;4.00;;
70444;SDS011;57902;49.638;11.070;2022-11-20T11:56:28;11.93;;;4.35;;
70444;SDS011;57902;49.638;11.070;2022-11-20T11:58:56;10.35;;;3.80;;
70444;SDS011;57902;49.638;11.070;2022-11-20T12:07:01;7.38;;;2.78;;
70444;SDS011;57902;49.638;11.070;2022-11-20T12:09:56;15.77;;;5.22;;
70444;SDS011;57902;49.638;11.070;2022-11-20T12:12:26;18.08;;;5.43;;
70444;SDS011;57902;49.638;11.070;2022-11-20T12:14:56;10.93;;;4.75;;
70444;SDS011;57902;49.638;11.070;2022-11-20T12:17:24;17.83;;;6.03;;
70444;SDS011;57902;49.638;11.070;2022-11-20T12:19:51;24.67;;;8.52;;
70444;SDS011;57902;49.638;11.070;2022-11-20T12:25:22;25.75;;;10.05;;
70444;SDS011;57902;49.638;11.070;2022-11-20T12:30:22;27.27;;;8.60;;
70444;SDS011;57902;49.638;11.070;2022-11-20T12:32:54;30.65;;;9.23;;
70444;SDS011;57902;49.638;11.070;2022-11-20T12:41:40;47.97;;;13.60;;
70444;SDS011;57902;49.638;11.070;2022-11-20T12:50:28;30.10;;;9.02;;
70444;SDS011;57902;49.638;11.070;2022-11-20T12:56:31;13.52;;;5.22;;
70444;SDS011;57902;49.638;11.070;2022-11-20T13:01:58;11.10;;;4.97;;
70444;SDS011;57902;49.638;11.070;2022-11-20T13:07:33;30.38;;;9.45;;
70444;SDS011;57902;49.638;11.070;2022-11-20T13:10:01;22.45;;;8.60;;
70444;SDS011;57902;49.638;11.070;2022-11-20T13:12:38;26.77;;;8.93;;
70444;SDS011;57902;49.638;11.070;2022-11-20T13:18:26;15.40;;;6.40;;
70444;SDS011;57902;49.638;11.070;2022-11-20T13:20:53;46.80;;;13.70;;
70444;SDS011;57902;49.638;11.070;2022-11-20T13:23:26;27.92;;;9.23;;
70444;SDS011;57902;49.638;11.070;2022-11-20T13:26:04;38.88;;;11.20;;
70444;SDS011;57902;49.638;11.070;2022-11-20T13:28:39;30.90;;;9.98;;
70444;SDS011;57902;49.638;11.070;2022-11-20T13:31:10;23.65;;;8.18;;
70444;SDS011;57902;49.638;11.070;2022-11-20T13:33:56;28.38;;;9.93;;
70444;SDS011;57902;49.638;11.070;2022-11-20T13:38:54;20.73;;;6.80;;
70444;SDS011;57902;49.638;11.070;2022-11-20T13:46:41;17.77;;;6.82;;
70444;SDS011;57902;49.638;11.070;2022-11-20T14:01:39;17.70;;;7.03;;
70444;SDS011;57902;49.638;11.070;2022-11-20T14:04:14;17.05;;;7.78;;
70444;SDS011;57902;49.638;11.070;2022-11-20T14:06:45;16.60;;;7.03;;
70444;SDS011;57902;49.638;11.070;2022-11-20T14:09:23;16.50;;;7.30;;
70444;SDS011;57902;49.638;11.070;2022-11-20T14:12:14;13.00;;;5.90;;
70444;SDS011;57902;49.638;11.070;2022-11-20T14:14:49;13.68;;;6.15;;
70444;SDS011;57902;49.638;11.070;2022-11-20T14:19:49;16.48;;;6.68;;
70444;SDS011;57902;49.638;11.070;2022-11-20T14:22:18;13.82;;;5.78;;
70444;SDS011;57902;49.638;11.070;2022-11-20T14:25:00;19.15;;;6.90;;
70444;SDS011;57902;49.638;11.070;2022-11-20T14:27:32;16.05;;;5.55;;
70444;SDS011;57902;49.638;11.070;2022-11-20T14:30:01;20.77;;;7.43;;
70444;SDS011;57902;49.638;11.070;2022-11-20T14:32:29;35.42;;;12.65;;
70444;SDS011;57902;49.638;11.070;2022-11-20T14:34:58;22.85;;;9.27;;
70444;SDS011;57902;49.638;11.070;2022-11-20T14:37:33;20.40;;;7.45;;
70444;SDS011;57902;49.638;11.070;2022-11-20T14:40:05;32.50;;;11.40;;
70444;SDS011;57902;49.638;11.070;2022-11-20T14:42:53;25.92;;;9.35;;
70444;SDS011;57902;49.638;11.070;2022-11-20T14:45:21;20.52;;;7.47;;
70444;SDS011;57902;49.638;11.070;2022-11-20T14:47:48;17.63;;;6.90;;
70444;SDS011;57902;49.638;11.070;2022-11-20T14:50:22;18.27;;;6.90;;
70444;SDS011;57902;49.638;11.070;2022-11-20T14:52:57;15.07;;;6.68;;
70444;SDS011;57902;49.638;11.070;2022-11-20T14:55:29;17.55;;;6.32;;
70444;SDS011;57902;49.638;11.070;2022-11-20T14:58:04;16.60;;;6.55;;
70444;SDS011;57902;49.638;11.070;2022-11-20T15:00:55;15.73;;;6.85;;
70444;SDS011;57902;49.638;11.070;2022-11-20T15:03:30;17.00;;;7.35;;
70444;SDS011;57902;49.638;11.070;2022-11-20T15:06:07;16.40;;;6.80;;
70444;SDS011;57902;49.638;11.070;2022-11-20T15:08:36;15.50;;;6.22;;
70444;SDS011;57902;49.638;11.070;2022-11-20T15:11:16;16.20;;;7.20;;
70444;SDS011;57902;49.638;11.070;2022-11-20T15:13:45;17.98;;;6.93;;
70444;SDS011;57902;49.638;11.070;2022-11-20T15:16:17;17.00;;;6.95;;
70444;SDS011;57902;49.638;11.070;2022-11-20T15:18:45;15.68;;;6.75;;
70444;SDS011;57902;49.638;11.070;2022-11-20T15:21:14;25.48;;;9.00;;
70444;SDS011;57902;49.638;11.070;2022-11-20T15:23:42;25.45;;;9.98;;
70444;SDS011;57902;49.638;11.070;2022-11-20T15:26:09;31.13;;;11.48;;
70444;SDS011;57902;49.638;11.070;2022-11-20T15:28:45;21.02;;;8.25;;
70444;SDS011;57902;49.638;11.070;2022-11-20T15:31:15;16.85;;;6.55;;
70444;SDS011;57902;49.638;11.070;2022-11-20T15:33:44;23.17;;;8.23;;
70444;SDS011;57902;49.638;11.070;2022-11-20T15:36:11;25.35;;;9.30;;
70444;SDS011;57902;49.638;11.070;2022-11-20T15:38:37;29.83;;;10.13;;
70444;SDS011;57902;49.638;11.070;2022-11-20T15:41:04;17.45;;;7.00;;
70444;SDS011;57902;49.638;11.070;2022-11-20T15:43:31;24.95;;;9.38;;
70444;SDS011;57902;49.638;11.070;2022-11-20T15:46:02;34.72;;;10.85;;
70444;SDS011;57902;49.638;11.070;2022-11-20T15:49:05;36.97;;;12.63;;
70444;SDS011;57902;49.638;11.070;2022-11-20T15:51:44;31.98;;;12.18;;
70444;SDS011;57902;49.638;11.070;2022-11-20T15:54:17;24.05;;;9.45;;
70444;SDS011;57902;49.638;11.070;2022-11-20T15:56:49;24.45;;;8.90;;
70444;SDS011;57902;49.638;11.070;2022-11-20T15:59:18;35.80;;;10.65;;
70444;SDS011;57902;49.638;11.070;2022-11-20T16:01:45;24.88;;;10.40;;
70444;SDS011;57902;49.638;11.070;2022-11-20T16:04:12;26.92;;;11.20;;
70444;SDS011;57902;49.638;11.070;2022-11-20T16:06:40;24.05;;;10.77;;
70444;SDS011;57902;49.638;11.070;2022-11-20T16:09:07;29.70;;;12.27;;
70444;SDS011;57902;49.638;11.070;2022-11-20T16:11:34;19.63;;;8.75;;
70444;SDS011;57902;49.638;11.070;2022-11-20T16:14:03;18.67;;;8.18;;
70444;SDS011;57902;49.638;11.070;2022-11-20T16:16:50;23.75;;;9.05;;
70444;SDS011;57902;49.638;11.070;2022-11-20T16:19:17;22.80;;;10.27;;
70444;SDS011;57902;49.638;11.070;2022-11-20T16:21:44;20.30;;;8.70;;
70444;SDS011;57902;49.638;11.070;2022-11-20T16:24:11;21.63;;;9.30;;
70444;SDS011;57902;49.638;11.070;2022-11-20T16:26:39;23.05;;;9.07;;
70444;SDS011;57902;49.638;11.070;2022-11-20T16:29:06;24.83;;;9.48;;
70444;SDS011;57902;49.638;11.070;2022-11-20T16:31:33;21.80;;;8.63;;
70444;SDS011;57902;49.638;11.070;2022-11-20T16:34:01;24.05;;;9.38;;
70444;SDS011;57902;49.638;11.070;2022-11-20T16:36:38;23.83;;;9.68;;